createdAt,value
2022-07-25T00:05:15.966Z,975.9
2022-07-25T00:10:52.029Z,975.66
2022-07-25T00:16:23.956Z,975.86
2022-07-25T00:21:55.554Z,975.74
2022-07-25T00:27:27.305Z,975.71
2022-07-25T00:32:58.906Z,975.67
2022-07-25T00:38:30.630Z,975.63
2022-07-25T00:44:02.742Z,975.84
2022-07-25T00:49:34.094Z,975.64
2022-07-25T00:55:05.887Z,975.69
2022-07-25T01:00:37.614Z,975.57
2022-07-25T01:06:09.310Z,975.78
2022-07-25T01:11:45.405Z,975.62
2022-07-25T01:17:17.203Z,975.65
2022-07-25T01:22:48.742Z,975.53
2022-07-25T01:28:20.621Z,975.43
2022-07-25T01:33:52.345Z,975.37
2022-07-25T01:39:24.030Z,975.46
2022-07-25T01:44:55.720Z,975.5
2022-07-25T01:50:27.638Z,975.52
2022-07-25T01:56:03.090Z,975.63
2022-07-25T02:01:31.214Z,975.55
2022-07-25T02:07:02.671Z,975.41
2022-07-25T02:12:38.771Z,975.68
2022-07-25T02:18:10.530Z,975.5
2022-07-25T02:23:42.237Z,975.35
2022-07-25T02:29:14.047Z,975.39
2022-07-25T02:34:45.745Z,975.28
2022-07-25T02:40:17.345Z,975.39
2022-07-25T02:45:49.428Z,975.19
2022-07-25T02:51:20.789Z,975.29
2022-07-25T02:56:52.739Z,975.32
2022-07-25T03:02:24.241Z,975.22
2022-07-25T03:07:55.969Z,975.12
2022-07-25T03:13:34.199Z,974.9
2022-07-25T03:19:05.809Z,974.96
2022-07-25T03:24:37.725Z,974.86
2022-07-25T03:30:09.315Z,974.92
2022-07-25T03:35:40.948Z,974.85
2022-07-25T03:41:12.685Z,974.87
2022-07-25T03:46:44.448Z,974.83
2022-07-25T03:52:16.178Z,975.06
2022-07-25T03:57:47.954Z,974.97
2022-07-25T04:03:19.666Z,974.73
2022-07-25T04:08:51.295Z,975.01
2022-07-25T04:14:27.428Z,974.99
2022-07-25T04:19:59.393Z,974.98
2022-07-25T04:25:30.893Z,975.08
2022-07-25T04:31:02.614Z,975.14
2022-07-25T04:36:34.632Z,975.25
2022-07-25T04:42:06.086Z,975.37
2022-07-25T04:47:37.785Z,975.39
2022-07-25T04:53:09.570Z,975.33
2022-07-25T04:58:41.249Z,975.35
2022-07-25T05:04:13.063Z,975.35
2022-07-25T05:09:44.650Z,975.54
2022-07-25T05:15:20.903Z,975.62
2022-07-25T05:20:52.626Z,975.69
2022-07-25T05:26:24.390Z,975.86
2022-07-25T05:31:56.137Z,976.04
2022-07-25T05:37:27.675Z,976.04
2022-07-25T05:43:04.206Z,976.23
2022-07-25T05:48:31.395Z,976.37
2022-07-25T05:54:03.151Z,976.32
2022-07-25T05:59:34.652Z,976.23
2022-07-25T06:05:06.322Z,976.45
2022-07-25T06:10:37.955Z,976.4
2022-07-25T06:16:14.495Z,976.32
2022-07-25T06:21:45.917Z,976.41
2022-07-25T06:27:29.188Z,976.02
2022-07-25T06:32:49.504Z,976.23
2022-07-25T06:38:21.134Z,976.33
2022-07-25T06:43:52.834Z,976.54
2022-07-25T06:49:24.490Z,976.48
2022-07-25T06:54:56.260Z,976.28
2022-07-25T07:00:28.244Z,976.45
2022-07-25T07:05:59.690Z,976.54
2022-07-25T07:11:31.425Z,976.48
2022-07-25T07:17:07.629Z,976.53
2022-07-25T07:22:39.729Z,976.55
2022-07-25T07:28:10.950Z,976.89
2022-07-25T07:33:42.762Z,976.69
2022-07-25T07:39:14.620Z,976.31
2022-07-25T07:44:46.077Z,976.63
2022-07-25T07:50:17.791Z,976.2
2022-07-25T07:55:49.666Z,976.39
2022-07-25T08:01:21.442Z,976.21
2022-07-25T08:06:52.991Z,976.31
2022-07-25T08:12:24.714Z,976.1
2022-07-25T08:18:02.861Z,975.92
2022-07-25T08:23:34.525Z,975.83
2022-07-25T08:29:27.986Z,975.78
2022-07-25T08:34:38.069Z,975.75
2022-07-25T08:40:09.692Z,975.94
2022-07-25T08:45:41.432Z,975.61
2022-07-25T08:51:13.105Z,975.91
2022-07-25T08:56:44.954Z,975.55
2022-07-25T09:02:17.156Z,975.03
2022-07-25T09:07:48.334Z,975.23
2022-07-25T09:13:20.310Z,975.37
2022-07-25T09:18:56.149Z,975.13
2022-07-25T09:24:27.831Z,975.29
2022-07-25T09:29:59.568Z,974.71
2022-07-25T09:35:31.533Z,974.45
2022-07-25T09:41:03.019Z,974.9
2022-07-25T09:46:34.934Z,975.04
2022-07-25T09:52:06.465Z,974.79
2022-07-25T09:57:38.536Z,974.85
2022-07-25T10:03:10.032Z,974.99
2022-07-25T10:08:41.528Z,974.71
2022-07-25T10:14:13.425Z,974.07
2022-07-25T10:19:59.157Z,973.87
2022-07-25T10:25:21.189Z,974.31
2022-07-25T10:30:53.149Z,974.5
2022-07-25T10:36:24.688Z,974.05
2022-07-25T10:41:56.464Z,973.76
2022-07-25T10:47:28.213Z,973.59
2022-07-25T10:52:59.797Z,973.82
2022-07-25T10:58:31.601Z,973.45
2022-07-25T11:04:03.239Z,973.96
2022-07-25T11:09:34.949Z,973.32
2022-07-25T11:15:06.778Z,973.2
2022-07-25T11:20:42.877Z,973.24
2022-07-25T11:26:14.746Z,973.02
2022-07-25T11:31:46.942Z,973.15
2022-07-25T11:37:17.999Z,972.79
2022-07-25T11:42:49.752Z,971.78
2022-07-25T11:48:21.478Z,973.08
2022-07-25T11:53:53.266Z,971.85
2022-07-25T11:59:24.855Z,971.58
2022-07-25T12:04:56.614Z,971.07
2022-07-25T12:10:28.493Z,970.99
2022-07-25T12:16:00.070Z,971.68
2022-07-25T12:21:36.114Z,972.24
2022-07-25T12:27:07.892Z,972.08
2022-07-25T12:32:39.607Z,971.61
2022-07-25T12:38:11.342Z,971.39
2022-07-25T12:43:43.047Z,971.16
2022-07-25T12:49:15.138Z,971.18
2022-07-25T12:54:46.424Z,971.54
2022-07-25T13:00:18.193Z,972.16
2022-07-25T13:05:50.118Z,972.01
2022-07-25T13:11:21.654Z,972.1
2022-07-25T13:16:53.616Z,972.05
2022-07-25T13:22:31.406Z,972.04
2022-07-25T13:28:03.077Z,971.67
2022-07-25T13:33:35.012Z,971.69
2022-07-25T13:39:07.679Z,972.28
2022-07-25T13:44:38.362Z,971.76
2022-07-25T13:50:10.078Z,971.32
2022-07-25T13:55:41.773Z,970.98
2022-07-25T14:01:13.651Z,970.84
2022-07-25T14:06:45.479Z,970.58
2022-07-25T14:12:17.005Z,970.99
2022-07-25T14:17:48.669Z,970.35
2022-07-25T14:23:30.674Z,971.0
2022-07-25T14:28:56.482Z,971.4
2022-07-25T14:34:28.235Z,971.4
2022-07-25T14:40:00.048Z,971.51
2022-07-25T14:45:31.678Z,971.08
2022-07-25T14:51:03.385Z,971.66
2022-07-25T14:56:35.273Z,971.18
2022-07-25T15:02:06.902Z,970.88
2022-07-25T15:07:38.703Z,971.1
2022-07-25T15:13:32.822Z,971.31
2022-07-25T15:19:17.870Z,971.07
2022-07-25T15:24:18.233Z,971.0
2022-07-25T15:29:49.988Z,970.56
2022-07-25T15:35:21.710Z,970.87
2022-07-25T15:40:53.414Z,970.89
2022-07-25T15:46:25.341Z,970.12
2022-07-25T15:51:56.863Z,970.63
2022-07-25T15:57:28.533Z,970.93
2022-07-25T16:03:00.329Z,971.71
2022-07-25T16:08:32.111Z,971.63
2022-07-25T16:14:03.829Z,971.4
2022-07-25T16:19:35.615Z,971.4
2022-07-25T16:25:11.701Z,971.61
2022-07-25T16:30:43.466Z,971.8
2022-07-25T16:36:15.270Z,971.36
2022-07-25T16:41:46.890Z,971.84
2022-07-25T16:47:18.614Z,971.87
2022-07-25T16:52:50.402Z,971.74
2022-07-25T16:58:22.182Z,971.86
2022-07-25T17:03:53.894Z,971.71
2022-07-25T17:09:25.618Z,971.28
2022-07-25T17:14:57.367Z,971.48
2022-07-25T17:20:29.535Z,971.54
2022-07-25T17:26:05.747Z,971.11
2022-07-25T17:31:37.577Z,971.15
2022-07-25T17:37:09.239Z,971.0
2022-07-25T17:42:45.956Z,971.15
2022-07-25T17:48:12.542Z,971.01
2022-07-25T17:53:44.321Z,971.03
2022-07-25T17:59:15.964Z,970.89
2022-07-25T18:04:47.767Z,971.03
2022-07-25T18:10:19.742Z,970.9
2022-07-25T18:15:53.177Z,971.33
2022-07-25T18:21:22.969Z,971.27
2022-07-25T18:26:59.218Z,971.14
2022-07-25T18:32:30.906Z,971.24
2022-07-25T18:38:02.462Z,970.91
2022-07-25T18:43:34.939Z,971.17
2022-07-25T18:49:06.204Z,970.86
2022-07-25T18:54:38.766Z,971.41
2022-07-25T19:00:09.598Z,971.63
2022-07-25T19:05:41.602Z,971.5
2022-07-25T19:11:12.906Z,971.71
2022-07-25T19:16:44.831Z,971.91
2022-07-25T19:22:16.406Z,971.6
2022-07-25T19:27:52.478Z,972.15
2022-07-25T19:33:24.288Z,972.62
2022-07-25T19:38:55.950Z,972.43
2022-07-25T19:44:27.645Z,972.27
2022-07-25T19:49:59.405Z,972.32
2022-07-25T19:55:31.101Z,972.36
2022-07-25T20:01:02.946Z,972.38
2022-07-25T20:06:34.592Z,972.55
2022-07-25T20:12:06.284Z,972.7
2022-07-25T20:17:37.946Z,972.66
2022-07-25T20:23:09.816Z,972.97
2022-07-25T20:28:45.841Z,973.28
2022-07-25T20:34:20.102Z,973.01
2022-07-25T20:39:49.613Z,972.81
2022-07-25T20:45:21.003Z,972.55
2022-07-25T20:50:52.722Z,972.79
2022-07-25T20:56:24.438Z,973.03
2022-07-25T21:01:57.097Z,973.01
2022-07-25T21:07:28.655Z,973.15
2022-07-25T21:13:00.495Z,973.13
2022-07-25T21:18:31.949Z,972.86
2022-07-25T21:24:03.751Z,972.96
2022-07-25T21:29:41.990Z,973.28
2022-07-25T21:35:13.647Z,973.17
2022-07-25T21:40:45.406Z,973.54
2022-07-25T21:46:17.397Z,973.45
2022-07-25T21:51:49.622Z,973.78
2022-07-25T21:57:20.575Z,973.78
2022-07-25T22:02:52.321Z,973.69
2022-07-25T22:08:24.051Z,973.18
2022-07-25T22:13:55.755Z,973.46
2022-07-25T22:19:27.564Z,973.27
2022-07-25T22:24:59.222Z,973.59
2022-07-25T22:30:35.244Z,973.6
2022-07-25T22:36:06.997Z,973.5
2022-07-25T22:41:39.118Z,973.48
2022-07-25T22:47:10.524Z,973.51
2022-07-25T22:52:42.162Z,973.8
2022-07-25T22:58:13.926Z,974.02
2022-07-25T23:03:46.140Z,974.12
2022-07-25T23:09:17.344Z,974.09
2022-07-25T23:14:49.146Z,974.18
2022-07-25T23:20:20.878Z,974.09
2022-07-25T23:25:52.541Z,974.34
2022-07-25T23:31:28.790Z,974.42
2022-07-25T23:37:00.370Z,974.52
2022-07-25T23:42:32.485Z,974.46
2022-07-25T23:48:03.904Z,974.3
2022-07-25T23:53:35.857Z,974.77
2022-07-25T23:59:08.849Z,975.06
